.
WxDataArchive / Data Records for 2010-12-25
2010-12-24 December 2010 2010-12-26

Data Records for Saturday, 25 December 2010

Time	Temp	Chill	HIndex	Humid	Dewpt	 Wind 	HiWind	WindDir	Rain 	Barom 
-----	----	-----	------	-----	-----	------	------	-------	-----	----- 
00:00	26.4	26.4	26.4	84	22.2	0	1	90	0.00	30.233 
00:05	26.4	26.4	26.4	84	22.2	0	1	90	0.00	30.233 
00:10	26.4	26.4	26.4	84	22.2	0	0	---	0.00	30.233 
00:15	26.4	26.4	26.4	84	22.2	0	1	90	0.00	30.234 
00:20	26.4	26.4	26.4	84	22.2	0	2	90	0.00	30.234 
00:25	26.4	26.4	26.4	84	22.2	1	2	90	0.00	30.234 
00:30	26.3	26.3	26.3	84	22.1	1	2	90	0.00	30.221 
00:35	26.3	26.3	26.3	84	22.1	0	1	90	0.00	30.221 
00:40	26.3	26.3	26.3	84	22.1	0	2	90	0.00	30.221 
00:45	26.3	26.3	26.3	84	22.1	0	2	90	0.00	30.221 
00:50	26.1	26.1	26.1	84	21.9	0	2	90	0.00	30.221 
00:55	26.1	26.1	26.1	84	21.9	0	0	---	0.00	30.221 
01:00	26.1	26.1	26.1	83	21.7	0	1	90	0.00	30.220 
01:05	26.1	26.1	26.1	83	21.7	1	2	90	0.00	30.220 
01:10	26.1	26.1	26.1	83	21.7	0	1	90	0.00	30.220 
01:15	26.1	26.1	26.1	83	21.7	0	2	90	0.00	30.218 
01:20	26.1	26.1	26.1	83	21.7	0	1	90	0.00	30.218 
01:25	26.1	26.1	26.1	83	21.7	0	0	---	0.00	30.218 
01:30	26.1	26.1	26.1	83	21.7	0	1	90	0.00	30.217 
01:35	26.1	26.1	26.1	83	21.7	0	1	90	0.00	30.217 
01:40	26.0	26.0	26.0	83	21.6	0	2	90	0.00	30.217 
01:45	26.0	26.0	26.0	82	21.3	0	2	90	0.00	30.214 
01:50	26.0	26.0	26.0	82	21.3	0	1	90	0.00	30.214 
01:55	26.0	26.0	26.0	82	21.3	0	0	---	0.00	30.214 
02:00	26.0	26.0	26.0	82	21.3	0	0	---	0.00	30.215 
02:05	25.8	25.8	25.8	82	21.1	0	0	---	0.00	30.215 
02:10	25.8	25.8	25.8	82	21.1	0	0	---	0.00	30.215 
02:15	25.8	25.8	25.8	82	21.1	0	0	---	0.00	30.215 
02:20	25.8	25.8	25.8	82	21.1	0	0	---	0.00	30.215 
02:25	25.8	25.8	25.8	83	21.4	0	0	---	0.00	30.215 
02:30	25.8	25.8	25.8	83	21.4	0	0	---	0.00	30.218 
02:35	25.8	25.8	25.8	83	21.4	0	0	---	0.00	30.218 
02:40	25.8	25.8	25.8	83	21.4	0	0	---	0.00	30.218 
02:45	25.7	25.7	25.7	83	21.3	0	0	---	0.00	30.217 
02:50	25.7	25.7	25.7	83	21.3	0	0	---	0.00	30.217 
02:55	25.7	25.7	25.7	83	21.3	0	0	---	0.00	30.217 
03:00	25.7	25.7	25.7	83	21.3	0	0	---	0.00	30.220 
03:05	25.7	25.7	25.7	83	21.3	0	0	---	0.00	30.220 
03:10	25.7	25.7	25.7	83	21.3	0	0	---	0.00	30.220 
03:15	25.7	25.7	25.7	83	21.3	0	0	---	0.00	30.220 
03:20	25.7	25.7	25.7	83	21.3	0	0	---	0.00	30.220 
03:25	25.7	25.7	25.7	83	21.3	0	0	---	0.00	30.220 
03:30	25.7	25.7	25.7	83	21.3	0	0	---	0.00	30.220 
03:35	25.7	25.7	25.7	83	21.3	0	0	---	0.00	30.220 
03:40	25.7	25.7	25.7	83	21.3	0	0	---	0.00	30.220 
03:45	25.6	25.6	25.6	83	21.2	0	0	---	0.00	30.211 
03:50	25.6	25.6	25.6	82	20.9	0	0	---	0.00	30.211 
03:55	25.6	25.6	25.6	82	20.9	0	0	---	0.00	30.211 
04:00	25.6	25.6	25.6	82	20.9	0	1	90	0.00	30.208 
04:05	25.6	25.6	25.6	82	20.9	0	1	90	0.00	30.208 
04:10	25.6	25.6	25.6	81	20.6	0	1	90	0.00	30.208 
04:15	25.6	25.6	25.6	81	20.6	0	2	90	0.00	30.207 
04:20	25.6	25.6	25.6	81	20.6	0	2	90	0.00	30.207 
04:25	25.6	25.6	25.6	81	20.6	0	0	---	0.00	30.207 
04:30	25.6	25.6	25.6	81	20.6	0	0	---	0.00	30.205 
04:35	25.6	25.6	25.6	81	20.6	0	1	90	0.00	30.205 
04:40	25.6	25.6	25.6	80	20.3	0	2	90	0.00	30.205 
04:45	25.4	25.4	25.4	80	20.1	0	0	---	0.00	30.201 
04:50	25.4	25.4	25.4	80	20.1	0	0	---	0.00	30.201 
04:55	25.4	25.4	25.4	80	20.1	0	1	90	0.00	30.201 
05:00	25.4	25.4	25.4	80	20.1	0	0	---	0.00	30.197 
05:05	25.4	25.4	25.4	80	20.1	0	0	---	0.00	30.197 
05:10	25.4	25.4	25.4	80	20.1	0	0	---	0.00	30.197 
05:15	25.4	25.4	25.4	80	20.1	0	0	---	0.00	30.198 
05:20	25.4	25.4	25.4	80	20.1	0	0	---	0.00	30.198 
05:25	25.4	25.4	25.4	81	20.4	0	1	90	0.00	30.198 
05:30	25.4	25.4	25.4	81	20.4	0	0	---	0.00	30.202 
05:35	25.4	25.4	25.4	81	20.4	0	0	---	0.00	30.202 
05:40	25.4	25.4	25.4	81	20.4	0	1	90	0.00	30.202 
05:45	25.4	25.4	25.4	81	20.4	0	1	90	0.00	30.204 
05:50	25.3	25.3	25.3	81	20.3	0	2	90	0.00	30.204 
05:55	25.3	25.3	25.3	81	20.3	0	2	90	0.00	30.204 
06:00	25.1	25.1	25.1	81	20.1	0	2	90	0.00	30.207 
06:05	25.0	25.0	25.0	81	20.0	0	0	---	0.00	30.207 
06:10	25.0	25.0	25.0	81	20.0	0	0	---	0.00	30.207 
06:15	24.8	24.8	24.8	81	19.8	0	0	---	0.00	30.207 
06:20	24.8	24.8	24.8	82	20.1	0	1	90	0.00	30.207 
06:25	24.7	24.7	24.7	83	20.3	0	1	90	0.00	30.207 
06:30	24.7	24.7	24.7	83	20.3	0	0	---	0.00	30.206 
06:35	24.7	24.7	24.7	84	20.6	0	1	90	0.00	30.206 
06:40	24.5	24.5	24.5	84	20.4	0	0	---	0.00	30.206 
06:45	24.5	24.5	24.5	84	20.4	0	0	---	0.00	30.207 
06:50	24.4	24.4	24.4	84	20.3	0	1	90	0.00	30.207 
06:55	24.4	24.4	24.4	85	20.6	0	0	---	0.00	30.207 
07:00	24.2	24.2	24.2	85	20.4	0	1	90	0.00	30.203 
07:05	24.2	24.2	24.2	85	20.4	0	0	---	0.00	30.203 
07:10	24.1	24.1	24.1	85	20.3	0	0	---	0.00	30.203 
07:15	24.1	24.1	24.1	85	20.3	0	0	---	0.00	30.204 
07:20	24.1	24.1	24.1	85	20.3	0	0	---	0.00	30.204 
07:25	24.1	24.1	24.1	86	20.5	0	0	---	0.00	30.204 
07:30	24.1	24.1	24.1	86	20.5	0	1	90	0.00	30.206 
07:35	24.1	24.1	24.1	86	20.5	0	0	---	0.00	30.206 
07:40	24.1	24.1	24.1	86	20.5	0	0	---	0.00	30.206 
07:45	24.1	24.1	24.1	86	20.5	0	0	---	0.00	30.202 
07:50	23.9	23.9	23.9	86	20.3	0	0	---	0.00	30.202 
07:55	24.1	24.1	24.1	86	20.5	0	0	---	0.00	30.202 
08:00	23.9	23.9	23.9	86	20.3	0	0	---	0.00	30.199 
08:05	24.1	24.1	24.1	86	20.5	0	1	90	0.00	30.199 
08:10	24.1	24.1	24.1	86	20.5	0	1	90	0.00	30.199 
08:15	24.1	24.1	24.1	87	20.8	0	1	90	0.00	30.199 
08:20	24.1	24.1	24.1	87	20.8	0	0	---	0.00	30.199 
08:25	23.9	23.9	23.9	86	20.3	0	0	---	0.00	30.199 
08:30	23.9	23.9	23.9	86	20.3	0	1	90	0.00	30.202 
08:35	23.9	23.9	23.9	86	20.3	0	0	---	0.00	30.202 
08:40	23.9	23.9	23.9	86	20.3	0	1	90	0.00	30.202 
08:45	24.1	24.1	24.1	86	20.5	0	0	---	0.00	30.200 
08:50	24.1	24.1	24.1	86	20.5	0	1	90	0.00	30.200 
08:55	24.1	24.1	24.1	85	20.3	0	0	---	0.00	30.200 
09:00	24.1	24.1	24.1	85	20.3	0	1	90	0.00	30.205 
09:05	24.2	24.2	24.2	85	20.4	0	0	---	0.00	30.205 
09:10	24.2	24.2	24.2	85	20.4	0	1	90	0.00	30.205 
09:15	24.4	24.4	24.4	85	20.6	0	1	90	0.00	30.209 
09:20	24.4	24.4	24.4	84	20.3	0	2	90	0.00	30.209 
09:25	24.5	24.5	24.5	84	20.4	0	1	90	0.00	30.209 
09:30	24.7	24.7	24.7	84	20.6	0	1	90	0.00	30.207 
09:35	25.0	25.0	25.0	83	20.6	0	1	90	0.00	30.207 
09:40	25.1	25.1	25.1	83	20.7	0	1	90	0.00	30.207 
09:45	25.0	25.0	25.0	82	20.3	0	2	90	0.00	30.208 
09:50	25.0	25.0	25.0	82	20.3	0	1	90	0.00	30.208 
09:55	25.0	25.0	25.0	81	20.0	0	3	90	0.00	30.208 
10:00	25.0	25.0	25.0	81	20.0	0	2	338	0.00	30.209 
10:05	25.0	25.0	25.0	81	20.0	0	1	45	0.00	30.209 
10:10	25.1	25.1	25.1	81	20.1	0	1	45	0.00	30.209 
10:15	25.4	25.4	25.4	80	20.1	0	4	22	0.00	30.209 
10:20	25.6	25.6	25.6	80	20.3	0	1	270	0.00	30.209 
10:25	25.7	25.7	25.7	79	20.1	0	2	22	0.00	30.209 
10:30	25.8	25.8	25.8	79	20.2	0	1	22	0.00	30.210 
10:35	26.0	26.0	26.0	78	20.1	0	1	22	0.00	30.210 
10:40	26.0	26.0	26.0	78	20.1	0	1	22	0.00	30.210 
10:45	26.1	26.1	26.1	77	19.9	0	2	22	0.00	30.215 
10:50	26.0	26.0	26.0	77	19.8	0	2	22	0.00	30.215 
10:55	26.0	26.0	26.0	76	19.5	1	2	22	0.00	30.215 
11:00	26.1	26.1	26.1	76	19.6	0	2	0	0.00	30.218 
11:05	26.1	26.1	26.1	76	19.6	0	3	270	0.00	30.218 
11:10	26.3	26.3	26.3	76	19.8	0	1	270	0.00	30.218 
11:15	26.3	26.3	26.3	75	19.5	1	3	270	0.00	30.214 
11:20	26.3	26.3	26.3	75	19.5	0	1	270	0.00	30.214 
11:25	26.3	26.3	26.3	75	19.5	0	3	248	0.00	30.214 
11:30	26.4	26.4	26.4	75	19.6	0	2	248	0.00	30.208 
11:35	26.6	26.6	26.6	74	19.5	0	1	248	0.00	30.208 
11:40	26.7	26.7	26.7	74	19.5	0	1	248	0.00	30.208 
11:45	27.0	27.0	27.0	73	19.5	0	2	248	0.00	30.202 
11:50	27.2	27.2	27.2	73	19.7	0	2	248	0.00	30.202 
11:55	27.3	27.3	27.3	72	19.5	0	3	248	0.00	30.202 
12:00	27.3	27.3	27.3	71	19.2	0	1	248	0.00	30.197 
12:05	27.5	27.5	27.5	71	19.4	0	3	45	0.00	30.197 
12:10	27.3	27.3	27.3	70	18.8	0	2	45	0.00	30.197 
12:15	27.5	27.5	27.5	70	19.0	1	2	45	0.00	30.190 
12:20	27.5	27.5	27.5	70	19.0	0	1	270	0.00	30.190 
12:25	27.6	27.6	27.6	69	18.8	0	1	270	0.00	30.190 
12:30	27.6	27.6	27.6	69	18.8	0	2	45	0.00	30.187 
12:35	27.8	27.8	27.8	69	19.0	0	2	45	0.00	30.187 
12:40	27.9	27.9	27.9	69	19.1	0	1	45	0.01	30.187 
12:45	28.1	28.1	28.1	69	19.3	0	4	270	0.00	30.181 
12:50	28.1	28.1	28.1	68	18.9	0	3	292	0.00	30.181 
12:55	28.1	28.1	28.1	68	18.9	1	3	270	0.00	30.181 
13:00	27.9	27.9	27.9	67	18.4	0	2	292	0.00	30.176 
13:05	28.1	28.1	28.1	68	18.9	0	1	292	0.00	30.176 
13:10	28.2	28.2	28.2	68	19.0	0	2	292	0.00	30.176 
13:15	28.4	28.4	28.4	67	18.9	0	3	292	0.00	30.171 
13:20	28.4	28.4	28.4	66	18.5	1	3	22	0.00	30.171 
13:25	28.4	28.4	28.4	66	18.5	1	3	45	0.00	30.171 
13:30	28.4	28.4	28.4	65	18.2	1	2	90	0.00	30.166 
13:35	28.7	28.7	28.7	66	18.8	0	3	90	0.00	30.166 
13:40	28.8	28.8	28.8	65	18.5	1	4	270	0.00	30.166 
13:45	28.7	28.7	28.7	65	18.4	0	2	292	0.00	30.163 
13:50	28.8	28.8	28.8	65	18.5	0	3	338	0.00	30.163 
13:55	29.1	29.1	29.1	66	19.2	0	3	338	0.00	30.163 
14:00	29.1	29.1	29.1	65	18.8	0	2	315	0.00	30.160 
14:05	28.8	28.8	28.8	65	18.5	0	2	315	0.00	30.160 
14:10	28.8	28.8	28.8	63	17.8	0	1	315	0.00	30.160 
14:15	28.8	28.8	28.8	64	18.2	1	6	292	0.00	30.160 
14:20	28.8	28.8	28.8	65	18.5	0	2	292	0.00	30.160 
14:25	29.1	29.1	29.1	65	18.8	1	4	22	0.00	30.160 
14:30	29.3	29.3	29.3	65	19.0	1	2	22	0.00	30.159 
14:35	29.3	29.3	29.3	65	19.0	1	3	22	0.00	30.159 
14:40	29.0	29.0	29.0	66	19.1	1	2	315	0.00	30.159 
14:45	28.7	28.7	28.7	68	19.5	1	3	0	0.00	30.159 
14:50	28.4	28.4	28.4	69	19.5	1	3	0	0.00	30.159 
14:55	28.1	28.1	28.1	70	19.6	0	3	338	0.00	30.159 
15:00	27.9	27.9	27.9	71	19.7	0	2	90	0.00	30.162 
15:05	27.6	27.6	27.6	72	19.8	1	2	90	0.00	30.162 
15:10	27.6	27.6	27.6	72	19.8	0	2	135	0.00	30.162 
15:15	27.5	27.5	27.5	73	20.0	0	2	45	0.00	30.163 
15:20	27.3	27.3	27.3	72	19.5	1	4	22	0.00	30.163 
15:25	27.3	27.3	27.3	73	19.8	0	2	22	0.00	30.163 
15:30	27.2	27.2	27.2	72	19.4	0	2	22	0.00	30.167 
15:35	27.2	27.2	27.2	72	19.4	0	2	22	0.00	30.167 
15:40	27.2	27.2	27.2	73	19.7	0	1	22	0.00	30.167 
15:45	27.2	27.2	27.2	73	19.7	0	2	22	0.00	30.172 
15:50	27.2	27.2	27.2	72	19.4	0	2	0	0.00	30.172 
15:55	27.0	27.0	27.0	72	19.2	1	2	0	0.00	30.172 
16:00	27.0	27.0	27.0	72	19.2	0	2	0	0.00	30.175 
16:05	26.9	26.9	26.9	72	19.1	0	2	0	0.00	30.175 
16:10	26.9	26.9	26.9	72	19.1	0	2	338	0.00	30.175 
16:15	26.9	26.9	26.9	71	18.8	0	1	338	0.00	30.175 
16:20	27.0	27.0	27.0	71	18.9	0	3	0	0.00	30.175 
16:25	27.2	27.2	27.2	71	19.1	0	1	0	0.00	30.175 
16:30	27.3	27.3	27.3	71	19.2	0	2	0	0.00	30.176 
16:35	27.3	27.3	27.3	70	18.8	0	2	0	0.00	30.176 
16:40	27.3	27.3	27.3	71	19.2	0	2	22	0.00	30.176 
16:45	27.2	27.2	27.2	70	18.7	0	2	270	0.00	30.174 
16:50	27.0	27.0	27.0	70	18.5	0	2	270	0.00	30.174 
16:55	26.9	26.9	26.9	71	18.8	0	2	270	0.00	30.174 
17:00	26.7	26.7	26.7	71	18.6	0	2	270	0.00	30.175 
17:05	26.6	26.6	26.6	71	18.5	0	1	270	0.00	30.175 
17:10	26.6	26.6	26.6	71	18.5	0	1	270	0.00	30.175 
17:15	26.4	26.4	26.4	72	18.6	0	1	270	0.00	30.178 
17:20	26.4	26.4	26.4	72	18.6	0	1	270	0.00	30.178 
17:25	26.6	26.6	26.6	72	18.8	0	4	248	0.00	30.178 
17:30	26.6	26.6	26.6	72	18.8	0	3	68	0.00	30.177 
17:35	26.6	26.6	26.6	72	18.8	0	2	45	0.00	30.177 
17:40	26.7	26.7	26.7	72	18.9	0	1	45	0.00	30.177 
17:45	26.7	26.7	26.7	72	18.9	0	2	45	0.00	30.178 
17:50	26.7	26.7	26.7	73	19.2	0	1	45	0.00	30.178 
17:55	26.7	26.7	26.7	73	19.2	0	1	45	0.00	30.178 
18:00	26.6	26.6	26.6	73	19.1	0	2	270	0.00	30.182 
18:05	26.6	26.6	26.6	74	19.5	0	2	270	0.00	30.182 
18:10	26.4	26.4	26.4	74	19.3	0	1	270	0.00	30.182 
18:15	26.3	26.3	26.3	75	19.5	0	2	270	0.00	30.184 
18:20	26.1	26.1	26.1	76	19.6	0	1	270	0.00	30.184 
18:25	26.0	26.0	26.0	77	19.8	0	1	270	0.00	30.184 
18:30	25.8	25.8	25.8	77	19.6	1	4	248	0.00	30.182 
18:35	25.8	25.8	25.8	78	19.9	0	2	248	0.00	30.182 
18:40	25.7	25.7	25.7	79	20.1	0	3	315	0.00	30.182 
18:45	25.7	25.7	25.7	79	20.1	0	2	270	0.00	30.180 
18:50	25.7	25.7	25.7	79	20.1	0	1	270	0.00	30.180 
18:55	25.7	25.7	25.7	79	20.1	0	2	45	0.00	30.180 
19:00	25.8	25.8	25.8	79	20.2	0	2	45	0.00	30.181 
19:05	26.0	26.0	26.0	78	20.1	1	3	270	0.00	30.181 
19:10	26.0	26.0	26.0	78	20.1	0	2	338	0.00	30.181 
19:15	26.0	26.0	26.0	78	20.1	0	2	338	0.00	30.186 
19:20	25.8	25.8	25.8	79	20.2	0	2	338	0.00	30.186 
19:25	25.8	25.8	25.8	79	20.2	1	4	338	0.00	30.186 
19:30	25.7	25.7	25.7	80	20.4	0	2	338	0.00	30.186 
19:35	25.7	25.7	25.7	80	20.4	0	3	45	0.00	30.186 
19:40	25.6	25.6	25.6	79	20.0	0	2	45	0.00	30.186 
19:45	25.6	25.6	25.6	79	20.0	1	2	45	0.00	30.187 
19:50	25.6	25.6	25.6	79	20.0	0	2	0	0.00	30.187 
19:55	25.6	25.6	25.6	78	19.7	0	4	0	0.00	30.187 
20:00	25.4	25.4	25.4	78	19.5	1	3	315	0.00	30.186 
20:05	25.4	25.4	25.4	78	19.5	1	3	0	0.00	30.186 
20:10	25.4	25.4	25.4	78	19.5	0	3	22	0.00	30.186 
20:15	25.4	25.4	25.4	78	19.5	1	3	0	0.00	30.184 
20:20	25.3	25.3	25.3	78	19.4	0	2	0	0.00	30.184 
20:25	25.3	25.3	25.3	78	19.4	1	3	338	0.00	30.184 
20:30	25.3	25.3	25.3	78	19.4	1	5	292	0.00	30.183 
20:35	25.1	25.1	25.1	78	19.2	1	3	338	0.00	30.183 
20:40	25.0	25.0	25.0	77	18.8	1	4	22	0.00	30.183 
20:45	24.8	24.8	24.8	77	18.6	1	4	90	0.00	30.183 
20:50	24.8	24.8	24.8	77	18.6	1	3	0	0.00	30.183 
20:55	24.7	24.7	24.7	76	18.2	1	3	22	0.00	30.183 
21:00	24.5	24.5	24.5	76	18.0	1	4	22	0.00	30.182 
21:05	24.5	24.5	24.5	76	18.0	1	4	315	0.00	30.182 
21:10	24.4	24.4	24.4	76	17.9	0	3	22	0.00	30.182 
21:15	24.4	24.4	24.4	76	17.9	1	4	22	0.00	30.183 
21:20	24.4	24.4	24.4	76	17.9	1	3	0	0.00	30.183 
21:25	24.2	24.2	24.2	76	17.7	1	5	0	0.00	30.183 
21:30	24.1	24.1	24.1	76	17.7	1	3	315	0.00	30.183 
21:35	24.1	24.1	24.1	77	18.0	0	2	315	0.00	30.183 
21:40	24.1	24.1	24.1	77	18.0	0	2	315	0.00	30.183 
21:45	23.9	23.9	23.9	77	17.8	1	5	292	0.00	30.184 
21:50	23.8	23.8	23.8	78	18.0	0	2	292	0.00	30.184 
21:55	23.6	23.6	23.6	78	17.8	0	2	292	0.00	30.184 
22:00	23.6	23.6	23.6	79	18.1	0	2	315	0.00	30.182 
22:05	23.5	23.5	23.5	79	18.0	1	3	22	0.00	30.182 
22:10	23.5	23.5	23.5	79	18.0	1	3	292	0.00	30.182 
22:15	23.5	23.5	23.5	80	18.3	1	3	0	0.00	30.181 
22:20	23.5	23.5	23.5	80	18.3	1	4	0	0.00	30.181 
22:25	23.5	23.5	23.5	80	18.3	1	3	0	0.00	30.181 
22:30	23.5	23.5	23.5	80	18.3	0	3	22	0.00	30.179 
22:35	23.5	23.5	23.5	80	18.3	0	2	22	0.00	30.179 
22:40	23.5	23.5	23.5	81	18.5	0	3	0	0.00	30.179 
22:45	23.5	23.5	23.5	81	18.5	1	3	0	0.00	30.179 
22:50	23.5	23.5	23.5	81	18.5	1	3	22	0.00	30.179 
22:55	23.5	23.5	23.5	81	18.5	1	3	0	0.00	30.179 
23:00	23.5	23.5	23.5	81	18.5	1	2	338	0.00	30.179 
23:05	23.6	23.6	23.6	80	18.4	0	3	338	0.00	30.179 
23:10	23.6	23.6	23.6	80	18.4	1	3	338	0.00	30.179 
23:15	23.6	23.6	23.6	80	18.4	0	3	0	0.00	30.180 
23:20	23.6	23.6	23.6	80	18.4	0	4	22	0.00	30.180 
23:25	23.6	23.6	23.6	80	18.4	0	2	0	0.00	30.180 
23:30	23.6	23.6	23.6	80	18.4	1	2	0	0.00	30.179 
23:35	23.8	23.8	23.8	80	18.5	1	4	0	0.00	30.179 
23:40	23.8	23.8	23.8	80	18.5	1	4	0	0.00	30.179 
23:45	23.8	23.8	23.8	79	18.3	2	6	0	0.00	30.178 
23:50	23.9	23.9	23.9	79	18.4	1	3	0	0.00	30.178 
23:55	23.9	23.9	23.9	79	18.4	1	4	22	0.00	30.178 

CoCoRaHS
IN-AL-39
A2 Web Hosting
Creative Commons License
GoDaddy
search engine by freefind advanced

loaded 2018-11-14 04:14:04 • last modified 2010-11-18 10:43:29
Privacy PolicyDisclaimer
• wx.awcolley.com is powered by PmWiki v.2002016 •
• all content (unless otherwise noted) © 2018 A W Colley